Главная страница
METAR-TAF:

METAR-TAF

Аэропорты :

Waterbury-Oxford Airport

Оксфорд, Коннектикут, США

широта: 41-29N, долгота: 073-08W, высота над уровнем моря: 222 м

Текущие метеонаблюдения

Эта сводка был подготовлена 50 минут назад, в 16:51 UTC
Ветер 7 Узел от южный
Температура -6°C
Влажность 45%
Давление 1029 hPa
Видимость: 16.1 км
Рассеянная облачность на высоте 7500 фута
Сплошная облачность на высоте 9500 фута

METAR: KOXC 181651Z 17007KT 10SM BKN075 OVC095 M06/M16 A3038 RMK AO2 SLP314 T10611156

Время: 12:41 (17:41 UTC)


TAF: отсутствует

Метеонаблюдения и прогнозы для более 4000 аэропортов (сводки METAR и TAF).

Имеющиеся станции представлены на карте желтыми и красными точками.

Чтобы увидеть название станции, наведите на нее мышь.

Затем щелкните, чтобы увидеть метеонаблюдения и метеопрогнозы.

Управление картой: чтобы увеличить масштаб, щелкните зеленые кнопки с черным крестиком; чтобы уменьшить масштаб, щелкните зеленую кнопку с тире; для просмотра соседних карт щелкайте зеленые стрелки.


METAR-TAF: